Terminal Aerodrome Forecast
Issued by NWS San Angelo, TX

Home | Current Version | Previous Version | Text Only | Print | Product List | Glossary On
Versions: 1 2 3 4 5 6 7 8 9 10 11 12 13
000
FTUS44 KSJT 301100
TAFSJT
TAF
KSJT 301129Z 3012/0112 18006KT P6SM SKC
     FM301600 18011G17KT P6SM SCT050
     FM302300 17010KT P6SM SCT250=

USA.gov is the U.S. government's official web portal to all federal, state and local government web resources and services.